createdAt,value
2022-12-23T00:01:02.285Z,4.55
2022-12-23T00:05:01.687Z,4.43
2022-12-23T00:09:01.645Z,4.36
2022-12-23T00:13:20.318Z,4.33
2022-12-23T00:17:23.275Z,4.29
2022-12-23T00:21:23.601Z,4.24
2022-12-23T00:25:40.412Z,4.18
2022-12-23T00:29:40.336Z,4.13
2022-12-23T00:33:42.508Z,4.12
2022-12-23T00:37:41.909Z,4.11
2022-12-23T00:42:04.378Z,4.11
2022-12-23T00:45:19.376Z,4.11
2022-12-23T00:59:52.174Z,4.17
2022-12-23T01:03:10.500Z,4.17
2022-12-23T01:07:09.984Z,4.18
2022-12-23T01:11:11.009Z,4.18
2022-12-23T01:15:10.928Z,4.16
2022-12-23T01:19:10.618Z,4.17
2022-12-23T01:23:09.824Z,4.18
2022-12-23T01:27:09.014Z,4.19
2022-12-23T01:31:09.781Z,4.23
2022-12-23T01:35:09.229Z,4.23
2022-12-23T01:39:08.314Z,4.24
2022-12-23T01:43:22.618Z,4.21
2022-12-23T01:47:34.594Z,4.19
2022-12-23T01:51:33.319Z,4.18
2022-12-23T01:55:35.835Z,4.18
2022-12-23T01:59:54.613Z,4.18
2022-12-23T02:03:56.153Z,4.21
2022-12-23T02:08:14.899Z,4.25
2022-12-23T02:12:33.323Z,4.26
2022-12-23T02:16:50.584Z,4.27
2022-12-23T02:20:52.856Z,4.25
2022-12-23T02:24:57.819Z,4.22
2022-12-23T02:29:13.775Z,4.19
2022-12-23T02:33:31.478Z,4.16
2022-12-23T02:37:57.103Z,4.18
2022-12-23T02:42:12.003Z,4.22
2022-12-23T02:46:11.415Z,4.33
2022-12-23T02:50:29.038Z,4.38
2022-12-23T02:54:26.258Z,4.38
2022-12-23T02:57:44.294Z,4.39
2022-12-23T03:02:02.722Z,4.39
2022-12-23T03:05:27.805Z,4.37
2022-12-23T03:09:27.752Z,4.33
2022-12-23T03:13:33.062Z,4.29
2022-12-23T03:17:54.350Z,4.29
2022-12-23T03:21:14.959Z,4.30
2022-12-23T03:25:17.580Z,4.31
2022-12-23T03:29:24.571Z,4.30
2022-12-23T03:33:38.173Z,4.31
2022-12-23T03:37:39.152Z,4.31
2022-12-23T03:41:44.762Z,4.29
2022-12-23T03:45:59.621Z,4.23
2022-12-23T03:50:02.994Z,4.21
2022-12-23T03:54:25.703Z,4.24
2022-12-23T03:57:58.913Z,4.24
2022-12-23T04:02:24.423Z,4.23
2022-12-23T04:05:40.775Z,4.22
2022-12-23T04:09:40.893Z,4.20
2022-12-23T04:13:40.683Z,4.20
2022-12-23T04:17:40.118Z,4.22
2022-12-23T04:21:39.934Z,4.28
2022-12-23T04:25:38.950Z,4.30
2022-12-23T04:29:39.056Z,4.30
2022-12-23T04:33:52.062Z,4.29
2022-12-23T04:37:51.071Z,4.32
2022-12-23T04:41:50.040Z,4.35
2022-12-23T04:45:52.365Z,4.40
2022-12-23T04:49:51.803Z,4.39
2022-12-23T04:54:09.836Z,4.39
2022-12-23T04:57:28.623Z,4.42
2022-12-23T05:01:29.266Z,4.38
2022-12-23T05:05:28.677Z,4.30
2022-12-23T05:09:28.114Z,4.22
2022-12-23T05:13:27.134Z,4.16
2022-12-23T05:17:40.195Z,4.13
2022-12-23T05:21:40.027Z,4.14
2022-12-23T05:25:40.075Z,4.16
2022-12-23T05:29:39.592Z,4.14
2022-12-23T05:33:39.666Z,4.20
2022-12-23T05:37:38.571Z,4.23
2022-12-23T05:41:38.079Z,4.23
2022-12-23T05:45:38.260Z,4.24
2022-12-23T05:49:37.389Z,4.21
2022-12-23T05:53:36.592Z,4.18
2022-12-23T05:57:36.643Z,4.18
2022-12-23T06:01:36.321Z,4.18
2022-12-23T06:05:37.916Z,4.19
2022-12-23T06:09:50.595Z,4.19
2022-12-23T06:13:50.183Z,4.19
2022-12-23T06:17:49.654Z,4.17
2022-12-23T06:21:48.987Z,4.16
2022-12-23T06:25:48.153Z,4.16
2022-12-23T06:29:48.191Z,4.16
2022-12-23T06:33:47.352Z,4.11
2022-12-23T06:38:10.274Z,4.13
2022-12-23T06:41:24.175Z,4.14
2022-12-23T06:45:45.456Z,4.26
2022-12-23T06:49:00.601Z,4.30
2022-12-23T06:53:18.868Z,4.29
2022-12-23T06:56:37.382Z,4.28
2022-12-23T07:00:36.738Z,4.24
2022-12-23T07:04:35.573Z,4.22
2022-12-23T07:08:53.658Z,4.17
2022-12-23T07:12:31.087Z,4.12
2022-12-23T07:15:50.260Z,4.08
2022-12-23T07:19:49.801Z,4.10
2022-12-23T07:23:49.645Z,4.14
2022-12-23T07:27:52.840Z,4.21
2022-12-23T07:32:11.309Z,4.29
2022-12-23T07:35:30.033Z,4.38
2022-12-23T07:39:29.400Z,4.47
2022-12-23T07:43:47.454Z,4.52
2022-12-23T07:47:06.333Z,4.54
2022-12-23T07:51:24.143Z,4.78
2022-12-23T07:54:43.741Z,5.81
2022-12-23T07:58:20.616Z,6.00
2022-12-23T08:02:25.507Z,5.79
2022-12-23T08:06:02.155Z,5.69
2022-12-23T08:10:01.953Z,5.64
2022-12-23T08:14:01.471Z,5.58
2022-12-23T08:18:01.025Z,5.56
2022-12-23T08:22:18.770Z,5.59
2022-12-23T08:25:37.994Z,5.61
2022-12-23T08:29:36.830Z,5.75
2022-12-23T08:33:37.043Z,5.95
2022-12-23T08:37:36.357Z,6.20
2022-12-23T08:41:55.653Z,6.29
2022-12-23T08:45:13.362Z,6.09
2022-12-23T08:49:26.284Z,5.90
2022-12-23T08:53:25.131Z,5.82
2022-12-23T08:57:38.032Z,5.65
2022-12-23T09:01:50.914Z,5.62
2022-12-23T09:05:50.607Z,5.59
2022-12-23T09:09:49.937Z,5.40
2022-12-23T09:14:21.676Z,5.36
2022-12-23T09:17:40.535Z,5.38
2022-12-23T09:21:39.447Z,5.43
2022-12-23T09:26:16.506Z,5.46
2022-12-23T09:29:30.112Z,5.55
2022-12-23T09:33:29.477Z,5.61
2022-12-23T09:37:47.415Z,5.60
2022-12-23T09:41:15.218Z,5.57
2022-12-23T09:45:14.293Z,5.55
2022-12-23T09:53:40.263Z,5.54
2022-12-23T09:57:50.296Z,5.38
2022-12-23T10:01:59.509Z,5.19
2022-12-23T10:06:18.534Z,5.09
2022-12-23T10:10:23.012Z,5.05
2022-12-23T10:14:25.586Z,5.04
2022-12-23T10:18:28.192Z,5.02
2022-12-23T10:22:43.341Z,5.01
2022-12-23T10:27:00.816Z,5.00
2022-12-23T10:34:43.336Z,4.97
2022-12-23T10:38:45.575Z,5.00
2022-12-23T10:42:44.616Z,5.05
2022-12-23T10:47:13.582Z,4.93
2022-12-23T10:51:22.333Z,4.97
2022-12-23T10:55:33.786Z,5.00
2022-12-23T10:59:35.438Z,4.82
2022-12-23T11:03:41.482Z,4.63
2022-12-23T11:12:06.916Z,4.38
2022-12-23T11:16:12.376Z,4.41
2022-12-23T11:20:20.429Z,4.34
2022-12-23T11:24:21.121Z,4.22
2022-12-23T11:28:22.375Z,4.19
2022-12-23T11:32:26.026Z,4.16
2022-12-23T11:36:54.702Z,4.14
2022-12-23T11:40:07.675Z,4.13
2022-12-23T11:44:12.239Z,4.09
2022-12-23T11:48:30.955Z,4.06
2022-12-23T11:52:31.458Z,4.05
2022-12-23T11:56:39.826Z,4.05
2022-12-23T12:00:41.881Z,4.03
2022-12-23T12:04:43.442Z,3.97
2022-12-23T12:08:43.687Z,3.94
2022-12-23T12:12:43.243Z,3.93
2022-12-23T12:16:54.365Z,3.95
2022-12-23T12:20:55.841Z,3.95
2022-12-23T12:24:57.183Z,3.95
2022-12-23T12:29:15.280Z,3.95
2022-12-23T12:33:19.555Z,3.95
2022-12-23T12:37:23.006Z,3.94
2022-12-23T12:41:22.409Z,3.93
2022-12-23T12:45:22.965Z,3.94
2022-12-23T12:49:42.173Z,3.96
2022-12-23T12:54:05.680Z,4.08
2022-12-23T12:58:08.362Z,4.13
2022-12-23T13:02:40.231Z,4.10
2022-12-23T13:06:58.881Z,4.03
2022-12-23T13:10:57.918Z,3.98
2022-12-23T13:15:10.832Z,3.99
2022-12-23T13:19:28.924Z,4.04
2022-12-23T13:23:47.450Z,4.08
2022-12-23T13:28:13.023Z,4.08
2022-12-23T13:32:14.920Z,4.08
2022-12-23T13:36:53.759Z,4.08
2022-12-23T13:39:54.534Z,4.07
2022-12-23T13:44:06.566Z,4.05
2022-12-23T13:48:24.566Z,3.99
2022-12-23T13:52:43.921Z,3.92
2022-12-23T17:44:49.456Z,3.40
2022-12-23T17:48:49.118Z,3.34
2022-12-23T17:53:02.263Z,3.31
2022-12-23T17:57:01.406Z,3.27
2022-12-23T18:01:01.117Z,3.25
2022-12-23T18:05:02.482Z,3.25
2022-12-23T18:09:01.454Z,3.27
2022-12-23T18:13:02.257Z,3.29
2022-12-23T18:17:01.648Z,3.30
2022-12-23T18:21:00.866Z,3.31
2022-12-23T18:25:00.293Z,3.32
2022-12-23T18:28:59.641Z,3.31
2022-12-23T18:32:59.262Z,3.32
2022-12-23T18:36:59.301Z,3.35
2022-12-23T18:40:59.113Z,3.38
2022-12-23T18:44:58.989Z,3.42
2022-12-23T18:48:58.890Z,3.43
2022-12-23T18:53:25.137Z,3.42
2022-12-23T18:57:24.443Z,3.40
2022-12-23T19:01:23.535Z,3.37
2022-12-23T19:05:30.373Z,3.36
2022-12-23T19:09:29.822Z,3.36
2022-12-23T19:13:42.966Z,3.34
2022-12-23T19:17:42.539Z,3.27
2022-12-23T19:21:41.847Z,3.15
2022-12-23T19:25:55.619Z,3.04
2022-12-23T19:29:55.221Z,2.95
2022-12-23T19:33:54.620Z,2.91
2022-12-23T19:38:08.325Z,2.88
2022-12-23T19:42:08.404Z,2.86
2022-12-23T19:46:08.899Z,2.84
2022-12-23T19:50:08.762Z,2.82
2022-12-23T19:54:08.239Z,2.81
2022-12-23T19:58:07.524Z,2.77
2022-12-23T20:02:07.059Z,2.73
2022-12-23T20:06:22.259Z,2.70
2022-12-23T20:10:21.850Z,2.69
2022-12-23T20:14:22.008Z,2.68
2022-12-23T20:18:23.773Z,2.68
2022-12-23T20:21:59.492Z,2.66
2022-12-23T20:25:59.944Z,2.65
2022-12-23T20:29:59.663Z,2.65
2022-12-23T20:33:59.272Z,2.65
2022-12-23T20:37:59.094Z,2.63
2022-12-23T20:41:58.160Z,2.63
2022-12-23T20:45:57.205Z,2.66
2022-12-23T20:49:56.659Z,2.68
2022-12-23T20:53:59.976Z,2.71
2022-12-23T20:58:19.469Z,2.73
2022-12-23T21:02:18.626Z,2.75
2022-12-23T21:06:18.766Z,2.76
2022-12-23T21:10:20.974Z,2.87
2022-12-23T21:14:01.144Z,2.99
2022-12-23T21:18:04.138Z,3.08
2022-12-23T21:22:04.060Z,3.10
2022-12-23T21:26:18.601Z,3.10
2022-12-23T21:30:18.247Z,3.12
2022-12-23T21:34:18.086Z,3.13
2022-12-23T21:38:18.868Z,3.07
2022-12-23T21:41:55.473Z,3.02
2022-12-23T21:46:11.928Z,2.98
2022-12-23T21:50:11.834Z,2.95
2022-12-23T21:54:12.252Z,2.91
2022-12-23T21:58:12.074Z,2.89
2022-12-23T22:02:17.736Z,2.92
2022-12-23T22:06:21.628Z,2.95
2022-12-23T22:10:20.975Z,3.00
2022-12-23T22:14:20.886Z,3.02
2022-12-23T22:18:20.005Z,3.01
2022-12-23T22:22:19.518Z,3.05
2022-12-23T22:26:25.489Z,3.27
2022-12-23T22:30:39.232Z,3.34
2022-12-23T22:34:39.132Z,3.37
2022-12-23T22:38:38.351Z,3.36
2022-12-23T22:42:37.378Z,3.37
2022-12-23T22:46:50.352Z,3.37
2022-12-23T22:50:49.581Z,3.37
2022-12-23T22:54:49.068Z,3.39
2022-12-23T22:58:48.577Z,3.40
2022-12-23T23:02:48.273Z,3.43
2022-12-23T23:06:47.866Z,3.46
2022-12-23T23:10:47.152Z,3.47
2022-12-23T23:15:00.916Z,3.48
2022-12-23T23:19:01.271Z,3.50
2022-12-23T23:23:00.819Z,3.49
2022-12-23T23:27:00.298Z,3.49
2022-12-23T23:31:31.859Z,3.49
2022-12-23T23:35:19.536Z,3.48
2022-12-23T23:39:18.973Z,3.47
2022-12-23T23:43:18.638Z,3.45
2022-12-23T23:47:18.215Z,3.44
2022-12-23T23:51:18.484Z,3.44
2022-12-23T23:55:18.082Z,3.43
2022-12-23T23:59:17.497Z,3.43
